Time;durP1;ratioP1;P1;durP2;ratioP2;P2;SDS_P1;SDS_P2;PMS_P1;PMS_P2;Temp;Humidity;BMP_temperature;BMP_pressure;BME280_temperature;BME280_humidity;BME280_pressure;Samples;Min_cycle;Max_cycle;Signal;HPM_P1;HPM_P2
2023/10/29 00:02:09;;;;;;;5.40;2.50;;;;;;;10.74;66.51;99489.48;105579;1262;60555;-77
2023/10/29 00:04:35;;;;;;;4.80;2.60;;;;;;;10.71;66.62;99489.04;105431;1264;64048;-76
2023/10/29 00:07:03;;;;;;;5.20;2.50;;;;;;;10.69;66.70;99490.36;105250;1260;60515;-77
2023/10/29 00:09:30;;;;;;;4.40;2.70;;;;;;;10.68;66.83;99490.11;105427;1262;60585;-77
2023/10/29 00:11:57;;;;;;;4.30;2.60;;;;;;;10.66;66.83;99490.98;105459;1265;65039;-76
2023/10/29 00:14:24;;;;;;;9.20;2.70;;;;;;;10.65;66.90;99497.77;105544;1264;59379;-76
2023/10/29 00:16:51;;;;;;;5.70;2.80;;;;;;;10.64;67.09;99502.05;105343;1263;62658;-77
2023/10/29 00:19:18;;;;;;;4.10;2.60;;;;;;;10.63;67.01;99505.30;105287;1261;60447;-76
2023/10/29 00:21:45;;;;;;;4.10;2.70;;;;;;;10.62;67.03;99508.20;105467;1264;60469;-76
2023/10/29 00:24:12;;;;;;;3.90;2.70;;;;;;;10.64;67.13;99510.16;105605;1263;64999;-77
2023/10/29 00:26:39;;;;;;;4.00;2.60;;;;;;;10.67;67.08;99514.48;105455;1264;60549;-77
2023/10/29 00:29:07;;;;;;;5.30;3.00;;;;;;;10.69;66.99;99516.88;105519;1265;62566;-77
2023/10/29 00:31:34;;;;;;;6.50;3.30;;;;;;;10.72;66.90;99518.77;105528;1264;60630;-77
2023/10/29 00:34:02;;;;;;;6.40;3.30;;;;;;;10.76;66.92;99523.83;105458;1264;60448;-76
2023/10/29 00:36:29;;;;;;;5.60;2.90;;;;;;;10.80;66.80;99529.98;105473;1265;65277;-76
2023/10/29 00:38:56;;;;;;;5.70;2.70;;;;;;;10.83;66.63;99527.70;105456;1263;60435;-76
2023/10/29 00:41:23;;;;;;;4.00;2.50;;;;;;;10.87;66.47;99529.13;105325;1263;63883;-77
2023/10/29 00:43:51;;;;;;;4.50;2.50;;;;;;;10.88;66.34;99525.09;105210;1264;60425;-77
2023/10/29 00:46:17;;;;;;;5.30;2.30;;;;;;;10.90;66.23;99523.70;105531;1260;60319;-76
2023/10/29 00:48:44;;;;;;;4.20;2.30;;;;;;;10.92;66.16;99522.52;105553;1263;65235;-75
2023/10/29 00:51:11;;;;;;;4.20;2.70;;;;;;;10.94;66.04;99522.16;105468;1263;61997;-76
2023/10/29 00:53:39;;;;;;;4.70;2.40;;;;;;;10.96;65.89;99524.93;105426;1264;63745;-76
2023/10/29 00:56:08;;;;;;;4.80;2.10;;;;;;;10.97;65.83;99523.73;105467;1263;60474;-78
2023/10/29 00:58:35;;;;;;;5.10;2.40;;;;;;;10.98;65.68;99524.05;105425;1260;60560;-76
2023/10/29 01:01:03;;;;;;;4.70;2.50;;;;;;;10.98;65.54;99525.31;105518;1262;65118;-75
2023/10/29 01:03:30;;;;;;;5.40;2.40;;;;;;;10.97;65.52;99525.23;105621;1259;60542;-76
2023/10/29 01:05:57;;;;;;;5.30;2.30;;;;;;;10.95;65.55;99521.48;105699;1261;64024;-77
2023/10/29 01:08:24;;;;;;;4.60;2.10;;;;;;;10.94;65.51;99516.86;105495;1262;60565;-77
2023/10/29 01:10:51;;;;;;;4.00;2.10;;;;;;;10.93;65.42;99518.89;105367;1265;60320;-77
2023/10/29 01:13:18;;;;;;;3.50;2.20;;;;;;;10.91;65.38;99522.95;105444;1263;66113;-76
2023/10/29 01:15:46;;;;;;;4.00;2.30;;;;;;;10.91;65.41;99534.44;105362;1265;60432;-77
2023/10/29 01:18:12;;;;;;;5.80;2.60;;;;;;;10.89;65.44;99540.86;105726;1261;64187;-77
2023/10/29 01:20:40;;;;;;;3.30;2.20;;;;;;;10.88;65.40;99542.92;105243;1264;60457;-77
2023/10/29 01:23:06;;;;;;;3.10;2.30;;;;;;;10.87;65.46;99542.84;105297;1261;60589;-77
2023/10/29 01:25:33;;;;;;;3.60;2.30;;;;;;;10.85;65.50;99546.52;105358;1260;64288;-77
2023/10/29 01:27:59;;;;;;;4.40;2.60;;;;;;;10.83;65.53;99551.46;105364;1263;60600;-76
2023/10/29 01:30:26;;;;;;;3.80;2.50;;;;;;;10.82;65.49;99561.09;105286;1261;63779;-76
2023/10/29 01:32:53;;;;;;;5.10;2.50;;;;;;;10.81;65.52;99561.20;105503;1261;60525;-77
2023/10/29 01:35:20;;;;;;;4.80;2.80;;;;;;;10.79;65.40;99562.97;105496;1264;60470;-77
2023/10/29 01:37:46;;;;;;;4.20;2.60;;;;;;;10.77;65.44;99563.73;105418;1262;60377;-77
2023/10/29 01:40:13;;;;;;;4.50;2.50;;;;;;;10.75;65.46;99567.10;105609;1260;60597;-77
2023/10/29 01:42:40;;;;;;;6.50;2.30;;;;;;;10.73;65.51;99572.39;105300;1264;64123;-77
2023/10/29 01:45:07;;;;;;;3.60;2.50;;;;;;;10.71;65.60;99570.73;105318;1259;60565;-76
2023/10/29 01:47:33;;;;;;;3.40;2.20;;;;;;;10.70;65.64;99571.05;105369;1263;60401;-78
2023/10/29 01:50:00;;;;;;;5.40;2.30;;;;;;;10.68;65.67;99576.87;105316;1263;65286;-77
2023/10/29 01:52:27;;;;;;;4.20;2.20;;;;;;;10.67;65.68;99582.11;105367;1263;60566;-77
2023/10/29 01:54:54;;;;;;;4.50;2.30;;;;;;;10.66;65.65;99582.71;105361;1264;63886;-76
2023/10/29 01:57:21;;;;;;;3.60;2.30;;;;;;;10.65;65.69;99584.35;105354;1262;60460;-77
2023/10/29 01:59:48;;;;;;;5.70;2.40;;;;;;;10.64;65.67;99584.61;105534;1263;60372;-76
2023/10/29 02:02:15;;;;;;;3.60;2.60;;;;;;;10.64;65.64;99583.39;105389;1264;65081;-77
2023/10/29 02:04:42;;;;;;;3.80;2.60;;;;;;;10.64;65.64;99588.04;105264;1259;60589;-77
2023/10/29 02:07:08;;;;;;;4.10;2.80;;;;;;;10.61;65.67;99591.05;105152;1260;63799;-77
2023/10/29 02:09:35;;;;;;;6.80;3.70;;;;;;;10.61;65.67;99596.89;105202;1258;60539;-77
2023/10/29 02:12:02;;;;;;;6.40;3.90;;;;;;;10.60;65.63;99602.05;105292;1261;60565;-77
2023/10/29 02:14:32;;;;;;;7.50;4.10;;;;;;;10.59;65.71;99599.31;105566;1259;65268;-78
2023/10/29 02:16:59;;;;;;;8.00;3.90;;;;;;;10.59;65.68;99601.98;105581;1261;60534;-77
2023/10/29 02:19:25;;;;;;;5.90;3.40;;;;;;;10.57;65.68;99607.83;105602;1264;63971;-78
2023/10/29 02:21:54;;;;;;;5.60;3.10;;;;;;;10.53;65.63;99617.82;105435;1263;60434;-77
2023/10/29 02:24:21;;;;;;;4.00;2.60;;;;;;;10.48;65.58;99616.40;105444;1262;60495;-76
2023/10/29 02:26:47;;;;;;;6.00;2.60;;;;;;;10.39;65.61;99617.78;105499;1258;65117;-78
2023/10/29 02:29:14;;;;;;;4.00;2.50;;;;;;;10.28;65.66;99621.00;105472;1260;60592;-77
2023/10/29 02:31:42;;;;;;;4.80;2.50;;;;;;;10.19;65.73;99624.09;105392;1264;64140;-77
2023/10/29 02:34:09;;;;;;;5.50;2.50;;;;;;;10.11;65.80;99626.04;105323;1261;60456;-76
2023/10/29 02:36:35;;;;;;;4.50;2.30;;;;;;;10.03;65.97;99630.94;105418;1263;60456;-76
2023/10/29 02:39:02;;;;;;;3.50;2.60;;;;;;;9.95;66.06;99634.82;105547;1263;65046;-77
2023/10/29 02:41:29;;;;;;;5.10;2.60;;;;;;;9.87;66.26;99639.27;105422;1264;60360;-78
2023/10/29 02:43:58;;;;;;;7.00;2.60;;;;;;;9.79;66.44;99644.73;105436;1265;64087;-77
2023/10/29 02:46:25;;;;;;;4.60;2.60;;;;;;;9.71;66.54;99651.02;105386;1260;60480;-77
2023/10/29 02:48:52;;;;;;;3.70;2.70;;;;;;;9.65;66.76;99658.58;105378;1260;60436;-78
2023/10/29 02:51:18;;;;;;;6.10;2.80;;;;;;;9.60;66.86;99656.39;105485;1261;65098;-76
2023/10/29 02:53:45;;;;;;;5.40;2.80;;;;;;;9.56;67.00;99663.09;105431;1264;60404;-76
2023/10/29 02:56:12;;;;;;;4.10;2.70;;;;;;;9.53;67.13;99668.09;105557;1261;64056;-77
2023/10/29 02:58:38;;;;;;;5.40;3.10;;;;;;;9.50;67.20;99675.05;105232;1260;60524;-77
2023/10/29 03:01:06;;;;;;;6.00;3.60;;;;;;;9.44;67.22;99677.44;105391;1264;60503;-79
2023/10/29 03:03:37;;;;;;;6.00;3.30;;;;;;;9.38;67.30;99680.39;105446;1261;65251;-76
2023/10/29 03:06:08;;;;;;;6.40;3.30;;;;;;;9.34;67.51;99681.30;105555;1260;60427;-77
2023/10/29 03:08:35;;;;;;;5.60;3.00;;;;;;;9.32;67.70;99679.57;105492;1261;64088;-77
2023/10/29 03:11:02;;;;;;;6.50;3.20;;;;;;;9.32;67.88;99681.68;105524;1261;60388;-75
2023/10/29 03:13:29;;;;;;;4.10;2.70;;;;;;;9.33;67.97;99686.45;105514;1260;60568;-76
2023/10/29 03:15:56;;;;;;;5.40;3.00;;;;;;;9.33;68.10;99683.98;105588;1263;65390;-76
2023/10/29 03:18:23;;;;;;;4.60;2.90;;;;;;;9.33;68.15;99681.02;105342;1261;60477;-77
2023/10/29 03:20:50;;;;;;;4.90;3.30;;;;;;;9.34;68.28;99687.26;105310;1259;64097;-77
2023/10/29 03:23:17;;;;;;;4.00;3.00;;;;;;;9.35;68.42;99687.32;105436;1260;60718;-76
2023/10/29 03:25:47;;;;;;;5.90;3.30;;;;;;;9.37;68.52;99684.02;105409;1260;61176;-76
2023/10/29 03:28:15;;;;;;;7.20;3.30;;;;;;;9.41;68.72;99686.00;105509;1265;65033;-78
2023/10/29 03:30:42;;;;;;;6.50;3.70;;;;;;;9.44;68.71;99685.20;105430;1264;60448;-76
2023/10/29 03:33:09;;;;;;;10.30;4.50;;;;;;;9.48;68.78;99686.45;105519;1264;64096;-78
2023/10/29 03:35:37;;;;;;;7.10;4.20;;;;;;;9.50;68.80;99690.32;105534;1263;60369;-78
2023/10/29 03:38:03;;;;;;;7.00;3.90;;;;;;;9.52;68.74;99692.60;105461;1260;60600;-76
2023/10/29 03:40:30;;;;;;;7.10;3.80;;;;;;;9.53;68.76;99695.29;105415;1264;65335;-77
2023/10/29 03:42:57;;;;;;;7.50;3.90;;;;;;;9.55;68.82;99696.86;105424;1262;60445;-76
2023/10/29 03:45:24;;;;;;;8.80;3.80;;;;;;;9.57;68.97;99697.96;105361;1263;64154;-76
2023/10/29 03:47:50;;;;;;;9.30;3.60;;;;;;;9.60;69.06;99700.33;105453;1263;60426;-76
2023/10/29 03:50:17;;;;;;;6.20;3.50;;;;;;;9.61;69.12;99700.55;105420;1260;61020;-77
2023/10/29 03:52:45;;;;;;;6.40;3.60;;;;;;;9.61;69.03;99699.50;105129;1261;65230;-76
2023/10/29 03:55:11;;;;;;;5.50;3.50;;;;;;;9.60;69.06;99705.40;105521;1259;60387;-77
2023/10/29 03:57:40;;;;;;;6.40;3.40;;;;;;;9.59;69.06;99710.81;105290;1267;62819;-78
2023/10/29 04:00:07;;;;;;;6.10;3.80;;;;;;;9.56;69.06;99714.02;105133;1260;60458;-77
2023/10/29 04:02:40;;;;;;;5.40;3.40;;;;;;;9.53;69.08;99717.44;105448;1263;60552;-76
2023/10/29 04:05:07;;;;;;;5.70;3.50;;;;;;;9.50;69.05;99722.98;105487;1260;65233;-77
2023/10/29 04:07:37;;;;;;;4.80;3.20;;;;;;;9.48;69.12;99728.42;105446;1264;60476;-77
2023/10/29 04:10:04;;;;;;;11.30;3.60;;;;;;;9.46;69.22;99729.08;105247;1263;63940;-78
2023/10/29 04:12:32;;;;;;;6.60;3.70;;;;;;;9.46;69.28;99729.27;105351;1260;60452;-77
2023/10/29 04:14:59;;;;;;;7.10;3.60;;;;;;;9.46;69.30;99731.35;105403;1259;60489;-77
2023/10/29 04:17:25;;;;;;;6.60;4.00;;;;;;;9.47;69.41;99733.23;105597;1264;64977;-78
2023/10/29 04:19:52;;;;;;;5.00;3.90;;;;;;;9.49;69.35;99743.34;105317;1261;60599;-75
2023/10/29 04:22:19;;;;;;;6.00;3.50;;;;;;;9.49;69.30;99750.70;105338;1260;65341;-76
2023/10/29 04:24:46;;;;;;;6.40;3.80;;;;;;;9.47;69.29;99747.50;105478;1262;60515;-76
2023/10/29 04:27:13;;;;;;;5.50;3.80;;;;;;;9.46;69.33;99752.34;105384;1260;60535;-76
2023/10/29 04:29:39;;;;;;;4.80;3.40;;;;;;;9.44;69.31;99756.31;105417;1264;63651;-77
2023/10/29 04:32:07;;;;;;;7.40;3.90;;;;;;;9.42;69.40;99748.23;105602;1260;60483;-77
2023/10/29 04:34:33;;;;;;;6.90;4.00;;;;;;;9.41;69.48;99745.48;105468;1260;63725;-77
2023/10/29 04:37:00;;;;;;;5.30;3.60;;;;;;;9.41;69.48;99742.37;105505;1263;60458;-76
2023/10/29 04:39:27;;;;;;;7.00;4.30;;;;;;;9.40;69.58;99748.76;105434;1259;60359;-76
2023/10/29 04:41:53;;;;;;;6.50;3.80;;;;;;;9.38;69.60;99745.92;105579;1260;64010;-78
2023/10/29 04:44:20;;;;;;;6.30;4.70;;;;;;;9.37;69.59;99745.36;105389;1263;60583;-77
2023/10/29 04:46:47;;;;;;;9.00;5.00;;;;;;;9.37;69.71;99740.79;105429;1260;63877;-76
2023/10/29 04:49:14;;;;;;;6.40;4.70;;;;;;;9.38;69.74;99741.04;105412;1264;60404;-78
2023/10/29 04:51:40;;;;;;;6.70;4.60;;;;;;;9.41;69.77;99743.21;105375;1264;60348;-78
2023/10/29 04:54:07;;;;;;;6.10;4.40;;;;;;;9.45;69.75;99743.61;105489;1264;65018;-76
2023/10/29 04:56:34;;;;;;;5.10;3.30;;;;;;;9.49;69.81;99745.79;105422;1258;60333;-76
2023/10/29 04:59:00;;;;;;;4.70;2.80;;;;;;;9.53;69.84;99753.29;105342;1260;64089;-77
2023/10/29 05:01:27;;;;;;;4.60;3.00;;;;;;;9.58;69.91;99756.38;105399;1264;60374;-77
2023/10/29 05:03:54;;;;;;;6.20;2.80;;;;;;;9.64;69.93;99766.05;105439;1260;60417;-78
2023/10/29 05:06:21;;;;;;;6.10;2.70;;;;;;;9.70;69.92;99770.63;105379;1264;65018;-77
2023/10/29 05:08:49;;;;;;;4.60;2.40;;;;;;;9.77;69.81;99772.69;105289;1259;60425;-76
2023/10/29 05:11:16;;;;;;;5.20;2.60;;;;;;;9.84;69.77;99773.48;105533;1261;62694;-77
2023/10/29 05:13:42;;;;;;;4.80;2.60;;;;;;;9.91;69.72;99773.77;105549;1259;60573;-78
2023/10/29 05:16:09;;;;;;;3.40;2.50;;;;;;;9.98;69.66;99771.42;105341;1259;60524;-77
2023/10/29 05:18:37;;;;;;;5.10;2.30;;;;;;;10.04;69.54;99771.02;105630;1260;65211;-78
2023/10/29 05:21:04;;;;;;;4.10;3.20;;;;;;;10.11;69.50;99778.89;105405;1263;60408;-78
2023/10/29 05:23:30;;;;;;;5.10;3.50;;;;;;;10.17;69.44;99783.86;105277;1261;72619;-78
2023/10/29 05:25:57;;;;;;;5.50;3.50;;;;;;;10.21;69.32;99786.29;105414;1261;60336;-78
2023/10/29 05:28:25;;;;;;;7.00;4.10;;;;;;;10.22;69.14;99794.29;105258;1263;60454;-78
2023/10/29 05:30:51;;;;;;;11.20;4.90;;;;;;;10.21;69.08;99801.40;108917;1259;65104;-76
2023/10/29 05:33:18;;;;;;;10.00;5.10;;;;;;;10.21;69.10;99811.58;108946;1259;58268;-78
2023/10/29 05:35:46;;;;;;;9.80;5.10;;;;;;;10.23;69.12;99818.19;108897;1259;62658;-77
2023/10/29 05:38:12;;;;;;;7.10;4.70;;;;;;;10.25;69.16;99816.09;108872;1259;58311;-77
2023/10/29 05:40:39;;;;;;;7.50;4.80;;;;;;;10.28;69.16;99817.17;108933;1259;59547;-77
2023/10/29 05:43:06;;;;;;;7.10;4.20;;;;;;;10.33;69.19;99815.70;108871;1258;63646;-77
2023/10/29 05:45:32;;;;;;;6.20;3.80;;;;;;;10.40;69.15;99816.71;108871;1259;58721;-78
2023/10/29 05:47:59;;;;;;;10.70;3.90;;;;;;;10.46;69.14;99817.22;108907;1259;62649;-77
2023/10/29 05:50:26;;;;;;;6.50;3.20;;;;;;;10.53;69.08;99818.37;108876;1258;59765;-77
2023/10/29 05:52:52;;;;;;;4.60;3.00;;;;;;;10.60;68.91;99819.48;108850;1260;58225;-77
2023/10/29 05:55:22;;;;;;;4.80;2.90;;;;;;;10.68;68.72;99829.74;108960;1259;58324;-78
2023/10/29 05:57:49;;;;;;;6.20;3.40;;;;;;;10.75;68.66;99834.73;108843;1260;59721;-78
2023/10/29 06:00:16;;;;;;;6.20;3.00;;;;;;;10.82;68.52;99837.90;108873;1259;63274;-78
2023/10/29 06:02:42;;;;;;;4.40;3.10;;;;;;;10.91;68.45;99839.14;108924;1259;58282;-77
2023/10/29 06:05:09;;;;;;;5.30;3.40;;;;;;;10.98;68.21;99843.73;108936;1259;58271;-77
2023/10/29 06:07:37;;;;;;;6.60;3.50;;;;;;;11.06;68.18;99847.66;108817;1259;65234;-77
2023/10/29 06:10:04;;;;;;;5.40;3.10;;;;;;;11.12;67.86;99856.41;108878;1259;58284;-79
2023/10/29 06:12:30;;;;;;;7.40;3.30;;;;;;;11.17;67.62;99858.58;108929;1259;64132;-77
2023/10/29 06:14:57;;;;;;;5.80;3.40;;;;;;;11.22;67.50;99861.05;108970;1258;58237;-77
2023/10/29 06:17:24;;;;;;;4.70;3.20;;;;;;;11.25;67.33;99866.74;108987;1259;58419;-78
2023/10/29 06:19:53;;;;;;;6.70;3.30;;;;;;;11.28;67.30;99875.04;108982;1259;63719;-78
2023/10/29 06:22:20;;;;;;;5.10;3.20;;;;;;;11.31;67.28;99876.88;109009;1259;58448;-77
2023/10/29 06:24:46;;;;;;;10.00;3.60;;;;;;;11.36;67.18;99881.58;108988;1261;62435;-76
2023/10/29 06:27:13;;;;;;;6.00;3.50;;;;;;;11.40;67.06;99881.35;108986;1259;58144;-77
2023/10/29 06:29:40;;;;;;;6.40;3.80;;;;;;;11.43;67.02;99878.94;108963;1259;58478;-77
2023/10/29 06:32:07;;;;;;;7.90;3.90;;;;;;;11.50;67.22;99876.94;109017;1259;65183;-78
2023/10/29 06:34:34;;;;;;;7.60;3.40;;;;;;;11.60;67.21;99877.73;109005;1259;58283;-76
2023/10/29 06:37:00;;;;;;;5.20;3.30;;;;;;;11.72;66.96;99881.20;108975;1259;63834;-77
2023/10/29 06:39:27;;;;;;;5.20;2.80;;;;;;;11.84;66.67;99884.61;108997;1259;58179;-77
2023/10/29 06:41:53;;;;;;;5.10;3.00;;;;;;;11.92;66.28;99885.24;109002;1259;58224;-77
2023/10/29 06:44:20;;;;;;;5.50;3.00;;;;;;;11.99;66.03;99887.06;108955;1259;63783;-77
2023/10/29 06:46:47;;;;;;;6.20;3.40;;;;;;;12.05;65.77;99894.27;109007;1259;58855;-78
2023/10/29 06:49:13;;;;;;;5.80;3.60;;;;;;;12.12;65.60;99901.09;108969;1259;63105;-78
2023/10/29 06:51:41;;;;;;;4.50;2.80;;;;;;;12.19;65.48;99910.82;108965;1259;58427;-78
2023/10/29 06:54:08;;;;;;;4.10;2.50;;;;;;;12.27;65.27;99916.41;108984;1260;58189;-79
2023/10/29 06:56:34;;;;;;;4.00;2.40;;;;;;;12.35;64.98;99921.48;108974;1259;65177;-78
2023/10/29 06:59:01;;;;;;;3.10;2.10;;;;;;;12.44;64.75;99922.73;109018;1259;58180;-78
2023/10/29 07:01:28;;;;;;;3.90;2.40;;;;;;;12.54;64.42;99927.23;108952;1259;64074;-78
2023/10/29 07:03:54;;;;;;;3.40;2.40;;;;;;;12.62;63.81;99929.45;108978;1259;58633;-77
2023/10/29 07:06:21;;;;;;;3.70;2.60;;;;;;;12.68;63.75;99940.60;109020;1259;58180;-78
2023/10/29 07:08:48;;;;;;;3.40;2.20;;;;;;;12.74;63.42;99948.52;109008;1259;65023;-78
2023/10/29 07:11:14;;;;;;;4.20;2.30;;;;;;;12.75;63.13;99951.43;109011;1259;58231;-77
2023/10/29 07:13:41;;;;;;;3.30;2.20;;;;;;;12.75;63.05;99956.05;109009;1259;63857;-77
2023/10/29 07:16:08;;;;;;;3.60;2.50;;;;;;;12.77;63.00;99959.17;108975;1259;58181;-77
2023/10/29 07:18:36;;;;;;;3.30;2.10;;;;;;;12.82;63.05;99960.92;109040;1259;58361;-77
2023/10/29 07:21:04;;;;;;;3.30;2.00;;;;;;;12.92;63.11;99968.53;109022;1259;65006;-78
2023/10/29 07:23:31;;;;;;;3.40;2.10;;;;;;;12.98;62.68;99965.79;109040;1259;58524;-77
2023/10/29 07:25:58;;;;;;;4.60;1.90;;;;;;;12.99;62.47;99963.45;109050;1259;62690;-77
2023/10/29 07:28:25;;;;;;;3.70;2.10;;;;;;;13.03;62.63;99961.41;109019;1259;58263;-78
2023/10/29 07:30:52;;;;;;;3.50;2.10;;;;;;;13.11;62.47;99962.21;108849;1259;231564;-78
2023/10/29 07:33:18;;;;;;;3.00;2.10;;;;;;;13.21;62.38;99958.00;109021;1259;64083;-78
2023/10/29 07:35:45;;;;;;;3.50;2.20;;;;;;;13.27;62.26;99955.06;109046;1259;58279;-79
2023/10/29 07:38:12;;;;;;;3.80;2.10;;;;;;;13.32;62.05;99957.64;108961;1260;64054;-79
2023/10/29 07:40:39;;;;;;;4.30;2.40;;;;;;;13.31;61.97;99961.70;108916;1259;58045;-80
2023/10/29 07:43:05;;;;;;;3.80;2.20;;;;;;;13.35;61.97;99965.42;109041;1259;58041;-79
2023/10/29 07:45:32;;;;;;;5.20;2.20;;;;;;;13.39;61.99;99967.15;109021;1259;65338;-80
2023/10/29 07:47:59;;;;;;;4.00;2.50;;;;;;;13.40;61.95;99966.11;108857;1259;58228;-78
2023/10/29 07:50:26;;;;;;;4.20;2.10;;;;;;;13.44;61.98;99966.48;108989;1259;62628;-78
2023/10/29 07:52:53;;;;;;;3.10;2.10;;;;;;;13.53;62.03;99965.05;108905;1259;58194;-78
2023/10/29 07:55:19;;;;;;;2.80;2.20;;;;;;;13.63;61.93;99954.70;109026;1259;58116;-80
2023/10/29 07:57:46;;;;;;;3.70;2.10;;;;;;;13.71;61.69;99957.12;109046;1259;64930;-79
2023/10/29 08:00:13;;;;;;;4.20;2.40;;;;;;;13.77;61.56;99960.36;109043;1259;58288;-77
2023/10/29 08:02:41;;;;;;;3.20;2.20;;;;;;;13.87;61.22;99968.60;109011;1259;63875;-79
2023/10/29 08:05:09;;;;;;;3.80;2.40;;;;;;;13.91;60.99;99965.14;108944;1259;58185;-81
2023/10/29 08:07:36;;;;;;;7.50;2.20;;;;;;;13.96;60.94;99970.15;109061;1259;58229;-80
2023/10/29 08:10:03;;;;;;;3.60;2.30;;;;;;;14.03;60.65;99972.84;109015;1259;65072;-77
2023/10/29 08:12:31;;;;;;;4.00;2.20;;;;;;;14.08;60.61;99974.04;109040;1258;58816;-76
2023/10/29 08:14:57;;;;;;;3.30;2.00;;;;;;;14.16;60.53;99972.20;109051;1259;63850;-76
2023/10/29 08:17:25;;;;;;;3.10;2.20;;;;;;;14.26;60.52;99969.95;109026;1259;58185;-75
2023/10/29 08:19:52;;;;;;;4.20;2.30;;;;;;;14.36;60.17;99969.18;109006;1259;58189;-78
2023/10/29 08:22:19;;;;;;;2.40;2.10;;;;;;;14.44;59.98;99976.45;108951;1259;63737;-77
2023/10/29 08:24:46;;;;;;;3.80;1.90;;;;;;;14.48;59.57;99979.61;109029;1259;58322;-78
2023/10/29 08:27:13;;;;;;;5.20;2.20;;;;;;;14.49;59.30;99983.14;108897;1259;62581;-80
2023/10/29 08:34:23;;;;;;;4.60;2.30;;;;;;;14.67;59.19;99990.27;109029;1259;58208;-78
2023/10/29 08:36:49;;;;;;;4.30;2.40;;;;;;;14.79;59.08;99993.80;109024;1259;65938;-77
2023/10/29 08:39:17;;;;;;;5.20;2.20;;;;;;;14.89;58.85;100003.39;108988;1259;58358;-79
2023/10/29 08:41:44;;;;;;;3.30;2.30;;;;;;;15.01;58.30;100005.92;108999;1259;62571;-79
2023/10/29 08:44:11;;;;;;;4.40;2.40;;;;;;;15.12;58.22;100008.64;108995;1259;58076;-80
2023/10/29 08:46:37;;;;;;;4.50;2.70;;;;;;;15.22;57.90;100008.95;109035;1259;58109;-77
2023/10/29 08:49:04;;;;;;;5.00;2.20;;;;;;;15.27;57.76;100014.34;109026;1261;64875;-77
2023/10/29 08:56:05;;;;;;;3.30;2.20;;;;;;;15.51;57.00;100022.09;108942;1258;64008;-78
2023/10/29 08:58:32;;;;;;;3.10;2.50;;;;;;;15.52;56.47;100030.70;108838;1259;58183;-77
2023/10/29 09:00:59;;;;;;;3.60;2.40;;;;;;;15.48;56.54;100028.80;108845;1260;58908;-77
2023/10/29 09:03:26;;;;;;;2.60;2.30;;;;;;;15.50;56.73;100028.80;108787;1259;63983;-78
2023/10/29 09:06:00;;;;;;;3.40;2.30;;;;;;;15.54;56.60;100027.46;108862;1259;58584;-75
2023/10/29 09:08:27;;;;;;;2.80;2.10;;;;;;;15.60;56.60;100029.99;108737;1259;63293;-74
2023/10/29 09:10:54;;;;;;;3.50;2.00;;;;;;;15.64;56.32;100028.02;108931;1259;58180;-75
2023/10/29 09:13:23;;;;;;;4.00;2.30;;;;;;;15.63;56.18;100024.45;108809;1259;58164;-75
2023/10/29 09:15:50;;;;;;;6.20;2.30;;;;;;;15.64;56.39;100024.86;108851;1259;63989;-77
2023/10/29 09:18:17;;;;;;;3.00;2.10;;;;;;;15.67;56.26;100026.06;108797;1260;58190;-76
2023/10/29 09:20:46;;;;;;;3.10;2.10;;;;;;;15.71;56.16;100023.47;108879;1260;64113;-82
2023/10/29 09:23:14;;;;;;;3.40;2.20;;;;;;;15.80;56.38;100024.16;108938;1259;58169;-76
2023/10/29 09:25:44;;;;;;;4.20;2.10;;;;;;;15.97;56.90;100022.85;108846;1259;58207;-78
2023/10/29 09:28:12;;;;;;;3.40;2.40;;;;;;;16.13;56.83;100021.73;108950;1259;63817;-78
2023/10/29 09:30:38;;;;;;;3.50;2.10;;;;;;;16.22;56.42;100028.30;108893;1259;58292;-77
2023/10/29 09:33:07;;;;;;;3.20;2.00;;;;;;;16.27;56.23;100030.29;108846;1259;63779;-76
2023/10/29 09:35:35;;;;;;;3.50;2.20;;;;;;;16.29;56.26;100033.35;108989;1259;58215;-78
2023/10/29 09:38:01;;;;;;;3.90;2.50;;;;;;;16.37;56.45;100034.45;108945;1259;58251;-77
2023/10/29 09:40:29;;;;;;;3.00;2.20;;;;;;;16.49;56.29;100028.74;109002;1259;65258;-76
2023/10/29 09:42:56;;;;;;;4.20;2.40;;;;;;;16.54;55.49;100030.88;108938;1259;58222;-73
2023/10/29 09:45:24;;;;;;;3.50;2.20;;;;;;;16.57;55.42;100033.52;108865;1259;63850;-73
2023/10/29 09:47:54;;;;;;;2.70;2.10;;;;;;;16.69;55.56;100028.73;108984;1259;58214;-74
2023/10/29 09:50:24;;;;;;;4.10;2.00;;;;;;;16.75;54.79;100026.40;109024;1259;58087;-74
2023/10/29 09:52:52;;;;;;;3.50;2.20;;;;;;;16.81;54.88;100021.15;109028;1259;65051;-75
2023/10/29 09:55:20;;;;;;;2.90;2.20;;;;;;;16.97;54.66;100022.14;108883;1260;58447;-79
2023/10/29 09:57:47;;;;;;;6.80;2.40;;;;;;;17.13;54.28;100023.18;108942;1259;64205;-76
2023/10/29 10:05:09;;;;;;;4.00;2.30;;;;;;;17.28;52.64;100035.81;109015;1259;58036;-76
2023/10/29 10:07:36;;;;;;;3.90;2.30;;;;;;;17.30;52.58;100040.05;108941;1259;65135;-76
2023/10/29 10:10:38;;;;;;;3.00;2.20;;;;;;;17.29;52.31;100043.85;108950;1259;59136;-74
2023/10/29 10:13:05;;;;;;;4.20;2.70;;;;;;;17.24;51.92;100046.58;109008;1259;64032;-79
2023/10/29 10:15:32;;;;;;;4.80;2.30;;;;;;;17.18;52.20;100047.36;108936;1259;58090;-75
2023/10/29 10:18:00;;;;;;;3.00;1.70;;;;;;;17.16;52.19;100055.05;109010;1259;58089;-74
2023/10/29 10:20:28;;;;;;;2.50;1.70;;;;;;;17.12;51.78;100055.67;108978;1262;64028;-75
2023/10/29 10:23:00;;;;;;;2.20;1.80;;;;;;;17.12;52.06;100057.68;109014;1259;58249;-75
2023/10/29 10:25:32;;;;;;;3.90;1.80;;;;;;;17.11;51.61;100060.30;108900;1259;62768;-73
2023/10/29 10:32:33;;;;;;;4.20;2.30;;;;;;;17.00;52.25;100069.23;109014;1260;58176;-72
2023/10/29 10:35:05;;;;;;;3.10;2.00;;;;;;;16.97;52.37;100068.45;108987;1259;65149;-76
2023/10/29 10:37:37;;;;;;;3.20;1.80;;;;;;;16.93;52.26;100070.17;109008;1259;59330;-75
2023/10/29 10:40:23;;;;;;;3.40;1.70;;;;;;;16.92;52.54;100071.18;108818;1259;63766;-74
2023/10/29 10:42:56;;;;;;;3.50;1.80;;;;;;;16.97;52.65;100075.40;108901;1259;58095;-75
2023/10/29 10:45:28;;;;;;;6.30;2.00;;;;;;;17.01;52.44;100078.53;109005;1259;58049;-76
2023/10/29 10:47:58;;;;;;;7.10;1.90;;;;;;;16.99;52.05;100082.40;108899;1259;65104;-75
2023/10/29 10:50:28;;;;;;;2.70;1.70;;;;;;;16.98;52.15;100084.13;108929;1259;58218;-75
2023/10/29 10:52:57;;;;;;;2.80;1.60;;;;;;;17.02;52.07;100083.57;109007;1262;64189;-75
2023/10/29 10:55:26;;;;;;;2.70;1.50;;;;;;;17.04;51.83;100082.75;108906;1259;58150;-75
2023/10/29 10:58:16;;;;;;;2.80;1.70;;;;;;;17.11;51.77;100082.13;108964;1260;58132;-74
2023/10/29 11:00:46;;;;;;;2.60;1.50;;;;;;;17.16;51.26;100082.80;108864;1262;64885;-75
2023/10/29 11:03:14;;;;;;;2.40;1.70;;;;;;;17.14;51.34;100080.06;108803;1261;58271;-74
2023/10/29 11:06:01;;;;;;;2.60;2.00;;;;;;;17.12;51.57;100083.88;108791;1260;63932;-76
2023/10/29 11:08:30;;;;;;;4.60;1.80;;;;;;;17.10;51.53;100079.11;108907;1260;58125;-76
2023/10/29 11:10:59;;;;;;;3.70;2.00;;;;;;;17.10;51.42;100079.15;108854;1260;58143;-75
2023/10/29 11:13:27;;;;;;;2.60;2.20;;;;;;;17.07;51.48;100080.17;108842;1260;65185;-76
2023/10/29 11:15:55;;;;;;;3.30;2.50;;;;;;;17.01;51.37;100078.33;108859;1261;58636;-77
2023/10/29 11:18:29;;;;;;;4.20;2.20;;;;;;;16.96;51.20;100085.52;108909;1262;64185;-76
2023/10/29 11:20:59;;;;;;;3.80;2.20;;;;;;;16.89;50.94;100084.92;108757;1261;58201;-75
2023/10/29 11:23:27;;;;;;;3.80;2.10;;;;;;;16.81;50.82;100079.59;108727;1260;58285;-76
2023/10/29 11:26:23;;;;;;;3.60;2.20;;;;;;;16.76;51.10;100076.60;108793;1260;65224;-76
2023/10/29 11:28:52;;;;;;;5.00;2.10;;;;;;;16.70;51.21;100082.14;108839;1262;58206;-76
2023/10/29 11:31:22;;;;;;;2.60;1.90;;;;;;;16.61;51.53;100083.79;108900;1261;63697;-74
2023/10/29 11:33:56;;;;;;;2.80;1.80;;;;;;;16.56;51.53;100077.52;108833;1262;58170;-75
2023/10/29 11:36:34;;;;;;;4.30;2.80;;;;;;;16.54;52.04;100069.03;108916;1261;58281;-75
2023/10/29 11:39:22;;;;;;;2.40;1.80;;;;;;;16.60;51.90;100073.16;108866;1261;64959;-75
2023/10/29 11:41:49;;;;;;;3.10;2.10;;;;;;;16.65;51.66;100071.82;108844;1262;58350;-74
2023/10/29 11:44:29;;;;;;;3.90;1.90;;;;;;;16.65;51.56;100072.11;108860;1261;64061;-75
2023/10/29 11:47:03;;;;;;;2.60;2.00;;;;;;;16.63;51.14;100070.77;108823;1261;58193;-75